Terminal Aerodrome Forecast
Issued by NWS

Home | Current Version | Previous Version | Text Only | Print | Product List | Glossary On
Versions: 1 2 3 4 5 6 7 8 9 10 11 12 13 14 15 16 17 18 19
000
FTUS43 KDLH 221300 AAA
TAFHYR
TAF AMD
KHYR 221323Z 2213/2312 27009G16KT P6SM BKN015
     FM221500 28012G20KT P6SM BKN020
     FM221800 30012G23KT P6SM SCT030
     FM222200 35011G18KT P6SM FEW040
     FM222300 36008KT P6SM SKC=

USA.gov is the U.S. government's official web portal to all federal, state and local government web resources and services.